createdAt,value
2019-01-11T00:00:49.827Z,34.90
2019-01-11T00:03:18.175Z,36.20
2019-01-11T00:05:46.538Z,35.63
2019-01-11T00:08:14.907Z,37.20
2019-01-11T00:10:43.263Z,37.13
2019-01-11T00:13:11.636Z,36.63
2019-01-11T00:15:39.996Z,36.50
2019-01-11T00:18:08.377Z,35.70
2019-01-11T00:20:36.705Z,37.07
2019-01-11T00:23:24.489Z,35.23
2019-01-11T00:25:52.883Z,35.37
2019-01-11T00:28:21.186Z,35.70
2019-01-11T00:30:49.545Z,37.30
2019-01-11T00:33:17.936Z,36.33
2019-01-11T00:35:46.230Z,36.90
2019-01-11T00:38:14.605Z,35.50
2019-01-11T00:40:42.891Z,34.70
2019-01-11T00:43:15.021Z,36.20
2019-01-11T00:45:41.210Z,35.60
2019-01-11T00:48:09.512Z,34.57
2019-01-11T00:50:37.895Z,34.23
2019-01-11T00:53:06.249Z,34.83
2019-01-11T00:55:34.630Z,34.17
2019-01-11T00:58:02.917Z,33.30
2019-01-11T01:00:31.294Z,33.60
2019-01-11T01:02:59.624Z,32.73
2019-01-11T01:05:28.002Z,33.60
2019-01-11T01:07:56.287Z,34.63
2019-01-11T01:10:26.740Z,35.37
2019-01-11T01:12:55.039Z,34.57
2019-01-11T01:15:23.491Z,36.27
2019-01-11T01:17:51.775Z,36.60
2019-01-11T01:20:20.137Z,36.33
2019-01-11T01:22:48.741Z,35.87
2019-01-11T01:25:17.039Z,36.53
2019-01-11T01:27:45.404Z,38.40
2019-01-11T01:30:20.084Z,38.37
2019-01-11T01:32:48.359Z,34.63
2019-01-11T01:35:16.671Z,34.00
2019-01-11T01:37:44.957Z,31.70
2019-01-11T01:40:15.096Z,33.50
2019-01-11T01:42:43.379Z,31.53
2019-01-11T01:45:14.630Z,34.27
2019-01-11T01:47:43.069Z,31.77
2019-01-11T01:50:12.370Z,32.57
2019-01-11T01:52:40.690Z,34.33
2019-01-11T01:55:11.288Z,34.50
2019-01-11T01:57:39.600Z,34.23
2019-01-11T02:00:18.977Z,34.43
2019-01-11T02:02:47.389Z,34.43
2019-01-11T02:05:15.857Z,34.93
2019-01-11T02:07:44.253Z,35.73
2019-01-11T02:10:14.423Z,38.03
2019-01-11T02:12:42.721Z,36.50
2019-01-11T02:15:11.807Z,38.57
2019-01-11T02:17:40.122Z,38.20
2019-01-11T02:20:12.045Z,39.20
2019-01-11T02:22:40.559Z,38.60
2019-01-11T02:25:09.197Z,43.10
2019-01-11T02:27:37.599Z,44.83
2019-01-11T02:30:09.166Z,44.57
2019-01-11T02:32:37.578Z,45.57
2019-01-11T02:35:05.898Z,43.17
2019-01-11T02:37:34.262Z,41.60
2019-01-11T02:40:03.072Z,41.47
2019-01-11T02:42:31.594Z,40.83
2019-01-11T02:44:59.966Z,39.53
2019-01-11T02:47:28.399Z,39.03
2019-01-11T02:49:56.767Z,40.03
2019-01-11T02:52:25.079Z,39.53
2019-01-11T02:54:53.441Z,40.57
2019-01-11T02:57:21.873Z,42.03
2019-01-11T02:59:50.242Z,40.80
2019-01-11T03:02:18.554Z,41.27
2019-01-11T03:04:46.916Z,41.87
2019-01-11T03:07:15.314Z,41.73
2019-01-11T03:09:43.616Z,42.70
2019-01-11T03:12:12.008Z,42.93
2019-01-11T03:14:40.306Z,41.00
2019-01-11T03:17:08.606Z,43.27
2019-01-11T03:19:37.171Z,42.40
2019-01-11T03:22:05.533Z,44.80
2019-01-11T03:24:33.848Z,42.60
2019-01-11T03:27:02.178Z,41.80
2019-01-11T03:29:30.542Z,40.93
2019-01-11T03:31:58.835Z,44.30
2019-01-11T03:34:27.232Z,43.60
2019-01-11T03:36:55.601Z,40.87
2019-01-11T03:39:23.963Z,42.60
2019-01-11T03:41:53.934Z,42.50
2019-01-11T03:44:22.286Z,41.93
2019-01-11T03:46:50.660Z,41.63
2019-01-11T03:49:19.118Z,41.70
2019-01-11T03:51:47.432Z,40.40
2019-01-11T03:54:15.810Z,43.20
2019-01-11T03:56:44.103Z,41.43
2019-01-11T03:59:12.530Z,42.77
2019-01-11T04:01:40.919Z,43.20
2019-01-11T04:04:09.290Z,41.27
2019-01-11T04:06:37.654Z,41.80
2019-01-11T04:09:08.795Z,42.90
2019-01-11T04:11:37.225Z,42.97
2019-01-11T04:14:05.701Z,42.97
2019-01-11T04:16:53.503Z,42.87
2019-01-11T04:19:21.875Z,44.90
2019-01-11T04:21:51.869Z,46.27
2019-01-11T04:24:21.345Z,46.17
2019-01-11T04:26:49.718Z,44.77
2019-01-11T04:29:18.101Z,44.80
2019-01-11T04:31:46.438Z,43.17
2019-01-11T04:34:14.805Z,42.23
2019-01-11T04:36:43.163Z,44.50
2019-01-11T04:39:11.523Z,43.23
2019-01-11T04:41:39.911Z,40.87
2019-01-11T04:44:08.340Z,41.67
2019-01-11T04:46:36.657Z,40.10
2019-01-11T04:49:05.006Z,40.33
2019-01-11T04:51:33.378Z,37.47
2019-01-11T04:54:01.741Z,38.73
2019-01-11T04:56:30.062Z,40.63
2019-01-11T04:58:58.358Z,37.80
2019-01-11T05:01:26.718Z,40.17
2019-01-11T05:03:55.315Z,38.23
2019-01-11T05:06:23.683Z,39.90
2019-01-11T05:08:51.989Z,39.37
2019-01-11T05:11:20.283Z,39.40
2019-01-11T05:13:50.338Z,39.57
2019-01-11T05:16:18.746Z,38.07
2019-01-11T05:18:47.068Z,38.67
2019-01-11T05:21:15.428Z,38.33
2019-01-11T05:23:43.809Z,37.03
2019-01-11T05:26:12.167Z,37.87
2019-01-11T05:28:40.566Z,36.40
2019-01-11T05:31:08.976Z,36.37
2019-01-11T05:33:37.354Z,35.10
2019-01-11T05:36:06.590Z,35.23
2019-01-11T05:38:34.968Z,34.90
2019-01-11T05:41:03.266Z,34.17
2019-01-11T05:43:31.643Z,34.43
2019-01-11T05:45:59.951Z,33.93
2019-01-11T05:48:31.919Z,32.87
2019-01-11T05:51:00.309Z,34.17
2019-01-11T05:53:34.230Z,33.03
2019-01-11T05:56:05.807Z,31.83
2019-01-11T05:58:35.445Z,32.43
2019-01-11T06:01:03.821Z,31.47
2019-01-11T06:03:32.482Z,31.90
2019-01-11T06:06:00.867Z,31.57
2019-01-11T06:08:29.503Z,30.80
2019-01-11T06:10:57.897Z,32.50
2019-01-11T06:13:29.368Z,30.33
2019-01-11T06:15:57.849Z,28.83
2019-01-11T06:18:26.143Z,30.27
2019-01-11T06:20:54.453Z,29.63
2019-01-11T06:23:22.755Z,29.73
2019-01-11T06:25:51.377Z,27.63
2019-01-11T06:28:19.723Z,26.80
2019-01-11T06:30:48.187Z,25.57
2019-01-11T06:33:16.573Z,24.87
2019-01-11T06:35:44.869Z,24.67
2019-01-11T06:38:13.281Z,24.97
2019-01-11T06:40:41.609Z,23.17
2019-01-11T06:43:09.987Z,22.03
2019-01-11T06:45:38.488Z,20.27
2019-01-11T06:48:08.467Z,19.80
2019-01-11T06:50:56.255Z,19.07
2019-01-11T06:53:24.583Z,14.03
2019-01-11T06:55:52.878Z,13.03
2019-01-11T06:58:40.683Z,11.87
2019-01-11T07:01:09.040Z,10.83
2019-01-11T07:03:37.324Z,12.00
2019-01-11T07:06:05.645Z,10.97
2019-01-11T07:08:33.932Z,9.80
2019-01-11T07:11:04.310Z,8.97
2019-01-11T07:13:32.659Z,8.47
2019-01-11T07:16:02.582Z,7.67
2019-01-11T07:18:30.860Z,11.73
2019-01-11T07:21:00.802Z,15.10
2019-01-11T07:23:30.912Z,7.87
2019-01-11T07:25:59.216Z,6.43
2019-01-11T07:28:27.492Z,6.07
2019-01-11T07:30:57.682Z,6.50
2019-01-11T07:33:26.016Z,6.10
2019-01-11T07:35:56.035Z,6.33
2019-01-11T07:38:26.928Z,6.33
2019-01-11T07:40:58.754Z,9.57
2019-01-11T07:43:27.081Z,8.90
2019-01-11T07:45:55.550Z,10.37
2019-01-11T07:48:24.052Z,7.50
2019-01-11T07:50:52.436Z,7.00
2019-01-11T07:53:20.780Z,6.43
2019-01-11T07:55:49.235Z,6.40
2019-01-11T07:58:17.614Z,6.70
2019-01-11T08:00:45.973Z,7.83
2019-01-11T08:03:14.272Z,7.33
2019-01-11T08:05:44.221Z,8.87
2019-01-11T08:08:12.583Z,9.77
2019-01-11T08:10:40.865Z,9.93
2019-01-11T08:13:09.289Z,9.97
2019-01-11T08:15:40.377Z,12.00
2019-01-11T08:18:08.680Z,12.87
2019-01-11T08:20:36.963Z,12.53
2019-01-11T08:23:06.039Z,11.03
2019-01-11T08:25:34.403Z,9.40
2019-01-11T08:28:03.141Z,10.30
2019-01-11T08:30:31.595Z,13.50
2019-01-11T08:33:00.019Z,13.17
2019-01-11T08:35:29.186Z,13.50
2019-01-11T08:37:57.668Z,14.90
2019-01-11T08:40:25.959Z,15.00
2019-01-11T08:42:54.322Z,13.93
2019-01-11T08:45:22.639Z,27.73
2019-01-11T08:47:50.926Z,13.23
2019-01-11T08:50:21.747Z,12.67
2019-01-11T08:52:50.041Z,13.33
2019-01-11T08:55:18.423Z,12.93
2019-01-11T08:57:46.869Z,13.33
2019-01-11T09:00:16.307Z,13.97
2019-01-11T09:02:44.727Z,14.87
2019-01-11T09:05:15.132Z,13.80
2019-01-11T09:07:43.514Z,13.20
2019-01-11T09:10:15.167Z,12.30
2019-01-11T09:12:43.640Z,12.43
2019-01-11T09:15:12.016Z,11.67
2019-01-11T09:17:41.945Z,12.23
2019-01-11T09:20:10.337Z,12.33
2019-01-11T09:22:38.692Z,11.10
2019-01-11T09:25:06.995Z,12.73
2019-01-11T09:27:37.935Z,12.17
2019-01-11T09:30:09.398Z,12.20
2019-01-11T09:32:37.839Z,13.00
2019-01-11T09:35:06.145Z,12.37
2019-01-11T09:37:35.004Z,10.43
2019-01-11T09:40:04.950Z,11.93
2019-01-11T09:42:34.296Z,11.77
2019-01-11T09:45:02.644Z,10.80
2019-01-11T09:47:31.004Z,12.47
2019-01-11T09:49:59.318Z,11.27
2019-01-11T09:52:31.528Z,10.43
2019-01-11T09:54:59.908Z,11.17
2019-01-11T09:57:31.700Z,14.00
2019-01-11T09:59:59.995Z,14.17
2019-01-11T10:02:36.030Z,13.03
2019-01-11T10:05:06.342Z,11.30
2019-01-11T10:07:34.712Z,13.03
2019-01-11T10:10:03.284Z,11.90
2019-01-11T10:12:31.804Z,11.73
2019-01-11T10:15:00.184Z,11.37
2019-01-11T10:17:28.637Z,10.87
2019-01-11T10:19:56.983Z,10.47
2019-01-11T10:22:25.341Z,11.77
2019-01-11T10:24:53.702Z,11.40
2019-01-11T10:27:22.073Z,10.77
2019-01-11T10:29:50.915Z,9.77
2019-01-11T10:32:19.207Z,10.13
2019-01-11T10:34:47.485Z,10.23
2019-01-11T10:37:15.771Z,9.73
2019-01-11T10:39:44.061Z,10.27
2019-01-11T10:42:12.359Z,10.97
2019-01-11T10:44:40.825Z,10.30
2019-01-11T10:47:09.130Z,8.83
2019-01-11T10:49:37.493Z,9.43
2019-01-11T10:52:06.109Z,10.50
2019-01-11T10:54:38.997Z,9.77
2019-01-11T10:57:08.923Z,7.90
2019-01-11T10:59:37.297Z,8.20
2019-01-11T11:02:05.608Z,8.77
2019-01-11T11:04:33.989Z,9.37
2019-01-11T11:07:02.376Z,8.90
2019-01-11T11:09:30.855Z,9.80
2019-01-11T11:11:59.248Z,10.30
2019-01-11T11:14:27.627Z,8.07
2019-01-11T11:16:56.003Z,9.03
2019-01-11T11:19:24.395Z,8.70
2019-01-11T11:21:52.687Z,8.67
2019-01-11T11:24:21.226Z,9.50
2019-01-11T11:26:49.726Z,8.97
2019-01-11T11:29:18.123Z,9.33
2019-01-11T11:31:46.406Z,9.17
2019-01-11T11:34:14.698Z,8.73
2019-01-11T11:36:43.058Z,8.60
2019-01-11T11:39:11.390Z,7.83
2019-01-11T11:41:39.843Z,7.43
2019-01-11T11:44:08.272Z,7.60
2019-01-11T11:46:36.680Z,7.00
2019-01-11T11:49:05.916Z,7.70
2019-01-11T11:51:34.216Z,8.60
2019-01-11T11:54:02.672Z,7.97
2019-01-11T11:56:30.972Z,8.30
2019-01-11T11:58:59.322Z,8.73
2019-01-11T12:01:27.607Z,8.30
2019-01-11T12:03:55.984Z,7.80
2019-01-11T12:06:26.358Z,7.70
2019-01-11T12:08:54.714Z,8.33
2019-01-11T12:11:23.018Z,7.73
2019-01-11T12:13:51.388Z,7.90
2019-01-11T12:16:25.410Z,7.07
2019-01-11T12:18:53.790Z,5.50
2019-01-11T12:21:22.140Z,5.50
2019-01-11T12:23:50.520Z,5.83
2019-01-11T12:26:18.953Z,5.87
2019-01-11T12:28:47.319Z,5.33
2019-01-11T12:31:15.600Z,4.73
2019-01-11T12:33:43.945Z,4.97
2019-01-11T12:36:12.253Z,4.00
2019-01-11T12:38:40.634Z,5.30
2019-01-11T12:41:08.924Z,6.03
2019-01-11T12:43:37.229Z,4.17
2019-01-11T12:46:05.583Z,4.83
2019-01-11T12:48:33.873Z,5.20
2019-01-11T12:51:02.427Z,4.00
2019-01-11T12:53:30.728Z,4.77
2019-01-11T12:55:59.103Z,6.63
2019-01-11T12:58:27.475Z,6.60
2019-01-11T13:00:58.945Z,5.27
2019-01-11T13:03:27.315Z,4.90
2019-01-11T13:05:55.725Z,3.90
2019-01-11T13:08:24.048Z,3.80
2019-01-11T13:10:52.335Z,4.60
2019-01-11T13:13:20.701Z,5.57
2019-01-11T13:15:49.099Z,4.13
2019-01-11T13:18:17.459Z,3.93
2019-01-11T13:20:45.851Z,3.67
2019-01-11T13:23:14.519Z,3.83
2019-01-11T13:25:42.996Z,3.67
2019-01-11T13:28:11.283Z,2.93
2019-01-11T13:30:39.590Z,3.27
2019-01-11T13:33:07.872Z,3.07
2019-01-11T13:35:36.215Z,3.00
2019-01-11T13:38:04.534Z,3.03
2019-01-11T13:40:32.872Z,2.80
2019-01-11T13:43:03.308Z,3.57
2019-01-11T13:45:31.713Z,3.20
2019-01-11T13:48:04.092Z,3.90
2019-01-11T13:50:38.192Z,3.00
2019-01-11T13:53:08.308Z,2.70
2019-01-11T13:55:36.710Z,3.10
2019-01-11T13:58:08.104Z,3.77
2019-01-11T14:00:36.402Z,2.70
2019-01-11T14:03:04.762Z,2.43
2019-01-11T14:05:33.213Z,2.80
2019-01-11T14:08:01.799Z,2.80
2019-01-11T14:10:30.101Z,2.83
2019-01-11T14:12:58.452Z,3.80
2019-01-11T14:15:26.970Z,3.20
2019-01-11T14:17:55.448Z,4.63
2019-01-11T14:20:23.740Z,4.83
2019-01-11T14:22:52.094Z,5.60
2019-01-11T14:25:20.396Z,4.17
2019-01-11T14:27:48.788Z,3.43
2019-01-11T14:30:19.216Z,3.77
2019-01-11T14:32:47.492Z,4.20
2019-01-11T14:35:15.830Z,3.97
2019-01-11T14:37:44.286Z,16.83
2019-01-11T14:40:15.589Z,7.23
2019-01-11T14:42:43.876Z,10.23
2019-01-11T14:45:14.778Z,5.53
2019-01-11T14:47:43.213Z,4.00
2019-01-11T14:50:14.005Z,3.47
2019-01-11T14:52:42.451Z,3.40
2019-01-11T14:55:10.923Z,3.20
2019-01-11T14:57:39.671Z,3.30
2019-01-11T15:00:17.242Z,4.00
2019-01-11T15:02:45.627Z,4.30
2019-01-11T15:05:15.133Z,4.00
2019-01-11T15:07:43.589Z,6.20
2019-01-11T15:10:13.719Z,5.00
2019-01-11T15:12:42.235Z,4.17
2019-01-11T15:15:10.535Z,5.00
2019-01-11T15:17:39.184Z,4.53
2019-01-11T15:20:15.419Z,4.70
2019-01-11T15:22:43.797Z,3.90
2019-01-11T15:25:12.151Z,4.17
2019-01-11T15:27:41.833Z,4.27
2019-01-11T15:30:13.478Z,3.40
2019-01-11T15:32:41.801Z,3.77
2019-01-11T15:35:10.181Z,3.30
2019-01-11T15:37:38.565Z,3.20
2019-01-11T15:40:13.097Z,2.83
2019-01-11T15:42:41.497Z,3.07
2019-01-11T15:45:09.900Z,3.20
2019-01-11T15:47:38.269Z,2.57
2019-01-11T15:50:12.399Z,2.73
2019-01-11T15:52:40.752Z,2.70
2019-01-11T15:55:10.381Z,3.20
2019-01-11T15:57:41.970Z,2.70
2019-01-11T16:00:20.708Z,2.70
2019-01-11T16:02:49.064Z,2.53
2019-01-11T16:05:17.466Z,3.40
2019-01-11T16:07:45.818Z,3.03
2019-01-11T16:10:17.301Z,3.40
2019-01-11T16:12:46.327Z,2.83
2019-01-11T16:15:26.934Z,2.97
2019-01-11T16:17:58.566Z,3.27
2019-01-11T16:20:26.914Z,3.40
2019-01-11T16:22:55.354Z,3.43
2019-01-11T16:25:23.711Z,4.43
2019-01-11T16:27:52.380Z,3.90
2019-01-11T16:30:20.804Z,4.00
2019-01-11T16:32:49.130Z,8.43
2019-01-11T16:35:17.655Z,5.97
2019-01-11T16:37:46.328Z,4.40
2019-01-11T16:40:14.687Z,5.20
2019-01-11T16:42:42.968Z,5.90
2019-01-11T16:45:15.015Z,6.37
2019-01-11T16:47:43.295Z,7.53
2019-01-11T16:50:19.181Z,7.53
2019-01-11T16:52:47.682Z,7.47
2019-01-11T16:55:16.105Z,6.07
2019-01-11T16:57:44.434Z,6.70
2019-01-11T17:00:16.069Z,6.70
2019-01-11T17:02:44.425Z,5.50
2019-01-11T17:05:12.991Z,4.93
2019-01-11T17:07:41.396Z,5.37
2019-01-11T17:10:11.917Z,4.47
2019-01-11T17:12:41.912Z,4.63
2019-01-11T17:15:18.290Z,4.33
2019-01-11T17:17:46.669Z,4.03
2019-01-11T17:20:16.668Z,3.90
2019-01-11T17:22:45.245Z,4.43
2019-01-11T17:25:13.597Z,5.13
2019-01-11T17:27:41.920Z,3.97
2019-01-11T17:30:13.657Z,4.87
2019-01-11T17:32:42.202Z,4.43
2019-01-11T17:35:10.633Z,3.60
2019-01-11T17:37:38.994Z,4.17
2019-01-11T17:40:09.634Z,3.97
2019-01-11T17:42:37.975Z,3.40
2019-01-11T17:45:09.030Z,3.60
2019-01-11T17:47:37.588Z,4.27
2019-01-11T17:50:09.220Z,4.10
2019-01-11T17:52:37.878Z,4.20
2019-01-11T17:55:06.513Z,3.73
2019-01-11T17:57:34.872Z,3.90
2019-01-11T18:00:05.059Z,3.87
2019-01-11T18:02:33.342Z,3.80
2019-01-11T18:05:01.693Z,3.43
2019-01-11T18:07:30.055Z,3.43
2019-01-11T18:09:58.419Z,4.90
2019-01-11T18:12:26.804Z,3.97
2019-01-11T18:14:55.192Z,3.87
2019-01-11T18:17:23.707Z,4.40
2019-01-11T18:19:52.056Z,3.30
2019-01-11T18:22:20.467Z,3.93
2019-01-11T18:24:48.742Z,3.63
2019-01-11T18:27:17.088Z,3.77
2019-01-11T18:29:45.472Z,3.90
2019-01-11T18:32:13.797Z,3.50
2019-01-11T18:34:42.076Z,3.83
2019-01-11T18:37:10.399Z,3.30
2019-01-11T18:39:38.702Z,3.00
2019-01-11T18:42:06.985Z,3.37
2019-01-11T18:44:35.369Z,3.53
2019-01-11T18:47:03.827Z,3.40
2019-01-11T18:49:32.239Z,3.97
2019-01-11T18:52:00.825Z,4.10
2019-01-11T18:54:29.187Z,4.27
2019-01-11T18:56:57.697Z,3.43
2019-01-11T18:59:26.125Z,3.87
2019-01-11T19:01:54.398Z,4.03
2019-01-11T19:04:22.922Z,4.40
2019-01-11T19:06:51.296Z,3.80
2019-01-11T19:09:20.112Z,4.40
2019-01-11T19:11:48.401Z,2.97
2019-01-11T19:14:17.024Z,3.37
2019-01-11T19:16:45.391Z,3.80
2019-01-11T19:19:13.856Z,2.73
2019-01-11T19:21:42.157Z,3.20
2019-01-11T19:24:10.440Z,2.80
2019-01-11T19:26:38.819Z,2.97
2019-01-11T19:29:07.200Z,4.00
2019-01-11T19:31:36.203Z,3.80
2019-01-11T19:34:04.560Z,3.70
2019-01-11T19:36:32.936Z,4.03
2019-01-11T19:39:01.367Z,4.10
2019-01-11T19:41:29.685Z,5.27
2019-01-11T19:43:58.855Z,4.83
2019-01-11T19:46:27.230Z,5.30
2019-01-11T19:48:55.618Z,5.37
2019-01-11T19:51:24.000Z,7.93
2019-01-11T19:53:52.488Z,10.23
2019-01-11T19:56:22.549Z,13.23
2019-01-11T19:58:50.929Z,8.90
2019-01-11T20:01:19.310Z,10.10
2019-01-11T20:03:47.669Z,7.77
2019-01-11T20:06:16.022Z,7.73
2019-01-11T20:08:44.688Z,6.87
2019-01-11T20:11:13.016Z,6.83
2019-01-11T20:13:41.322Z,6.93
2019-01-11T20:16:19.140Z,6.87
2019-01-11T20:18:47.467Z,7.03
2019-01-11T20:21:16.067Z,6.53
2019-01-11T20:23:44.576Z,6.53
2019-01-11T20:26:12.914Z,6.27
2019-01-11T20:28:41.280Z,7.23
2019-01-11T20:31:10.157Z,5.87
2019-01-11T20:33:38.482Z,6.57
2019-01-11T20:36:06.845Z,7.00
2019-01-11T20:38:35.249Z,6.57
2019-01-11T20:41:03.543Z,7.07
2019-01-11T20:43:31.843Z,7.60
2019-01-11T20:46:03.290Z,7.80
2019-01-11T20:48:34.717Z,8.30
2019-01-11T20:51:04.911Z,7.97
2019-01-11T20:53:33.275Z,8.13
2019-01-11T20:56:01.604Z,7.20
2019-01-11T20:58:30.038Z,7.00
2019-01-11T21:00:58.457Z,6.67
2019-01-11T21:03:27.083Z,6.13
2019-01-11T21:05:55.472Z,6.53
2019-01-11T21:08:23.961Z,6.73
2019-01-11T21:10:52.335Z,5.70
2019-01-11T21:13:20.727Z,5.60
2019-01-11T21:15:49.244Z,6.03
2019-01-11T21:18:17.925Z,5.70
2019-01-11T21:20:46.284Z,5.77
2019-01-11T21:23:14.697Z,6.00
2019-01-11T21:25:43.141Z,6.00
2019-01-11T21:28:11.501Z,5.67
2019-01-11T21:30:40.034Z,5.97
2019-01-11T21:33:08.685Z,5.73
2019-01-11T21:35:36.967Z,5.90
2019-01-11T21:38:05.398Z,5.70
2019-01-11T21:40:33.753Z,5.80
2019-01-11T21:43:02.220Z,5.20
2019-01-11T21:45:30.524Z,5.43
2019-01-11T21:47:58.900Z,6.10
2019-01-11T21:50:29.335Z,6.03
2019-01-11T21:52:57.382Z,5.70
2019-01-11T21:55:25.724Z,5.97
2019-01-11T21:57:54.022Z,5.93
2019-01-11T22:00:41.730Z,6.03
2019-01-11T22:03:22.630Z,6.93
2019-01-11T22:05:51.270Z,7.03
2019-01-11T22:08:19.649Z,7.53
2019-01-11T22:10:47.995Z,8.07
2019-01-11T22:13:16.395Z,8.40
2019-01-11T22:15:44.746Z,8.83
2019-01-11T22:18:13.105Z,8.47
2019-01-11T22:20:41.680Z,8.77
2019-01-11T22:23:10.042Z,8.40
2019-01-11T22:25:38.645Z,8.17
2019-01-11T22:28:07.099Z,8.83
2019-01-11T22:30:35.397Z,8.67
2019-01-11T22:33:03.759Z,8.60
2019-01-11T22:35:32.041Z,9.20
2019-01-11T22:38:00.336Z,8.97
2019-01-11T22:40:28.723Z,9.60
2019-01-11T22:42:57.729Z,9.17
2019-01-11T22:45:26.294Z,9.13
2019-01-11T22:47:54.668Z,9.10
2019-01-11T22:50:22.951Z,9.90
2019-01-11T22:52:52.370Z,9.73
2019-01-11T22:55:21.028Z,9.93
2019-01-11T22:57:49.319Z,10.57
2019-01-11T23:00:36.745Z,11.27
2019-01-11T23:03:08.369Z,12.57
2019-01-11T23:05:38.487Z,13.10
2019-01-11T23:08:07.945Z,12.73
2019-01-11T23:10:42.272Z,13.93
2019-01-11T23:13:10.641Z,14.87
2019-01-11T23:15:38.920Z,15.47
2019-01-11T23:18:07.394Z,16.13
2019-01-11T23:20:35.739Z,17.13
2019-01-11T23:23:04.040Z,16.43
2019-01-11T23:25:32.522Z,17.13
2019-01-11T23:28:00.843Z,18.00
2019-01-11T23:30:29.277Z,18.27
2019-01-11T23:32:57.556Z,16.97
2019-01-11T23:35:26.054Z,18.63
2019-01-11T23:37:54.339Z,18.67
2019-01-11T23:40:22.624Z,18.93
2019-01-11T23:42:50.987Z,18.67
2019-01-11T23:45:19.348Z,18.17
2019-01-11T23:47:47.814Z,18.93
2019-01-11T23:50:16.228Z,20.20
2019-01-11T23:52:44.774Z,20.13
2019-01-11T23:55:13.274Z,20.20
2019-01-11T23:57:41.748Z,19.70
